sensor_id;sensor_type;location;lat;lon;timestamp;pressure;altitude;pressure_sealevel;temperature;humidity
37694;BME280;23531;50.122;8.644;2023-12-20T00:01:13;100528.00;;;6.06;100.00
37694;BME280;23531;50.122;8.644;2023-12-20T00:03:14;100527.19;;;6.06;100.00
37694;BME280;23531;50.122;8.644;2023-12-20T00:05:16;100522.97;;;6.11;100.00
37694;BME280;23531;50.122;8.644;2023-12-20T00:07:17;100521.09;;;5.97;100.00
37694;BME280;23531;50.122;8.644;2023-12-20T00:09:18;100513.69;;;5.99;100.00
37694;BME280;23531;50.122;8.644;2023-12-20T00:11:20;100515.63;;;5.82;100.00
37694;BME280;23531;50.122;8.644;2023-12-20T00:13:20;100518.47;;;5.81;100.00
37694;BME280;23531;50.122;8.644;2023-12-20T00:15:21;100512.88;;;5.68;100.00
37694;BME280;23531;50.122;8.644;2023-12-20T00:17:24;100514.91;;;5.66;100.00
37694;BME280;23531;50.122;8.644;2023-12-20T00:19:25;100512.53;;;5.71;100.00
37694;BME280;23531;50.122;8.644;2023-12-20T00:21:27;100506.69;;;5.75;100.00
37694;BME280;23531;50.122;8.644;2023-12-20T00:23:28;100512.69;;;6.00;100.00
37694;BME280;23531;50.122;8.644;2023-12-20T00:25:29;100507.34;;;6.00;100.00
37694;BME280;23531;50.122;8.644;2023-12-20T00:27:30;100509.09;;;5.93;100.00
37694;BME280;23531;50.122;8.644;2023-12-20T00:29:32;100499.75;;;5.89;100.00
37694;BME280;23531;50.122;8.644;2023-12-20T00:31:33;100493.59;;;5.89;100.00
37694;BME280;23531;50.122;8.644;2023-12-20T00:33:34;100494.00;;;6.00;100.00
37694;BME280;23531;50.122;8.644;2023-12-20T00:35:36;100486.31;;;6.05;100.00
37694;BME280;23531;50.122;8.644;2023-12-20T00:37:37;100489.94;;;5.90;100.00
37694;BME280;23531;50.122;8.644;2023-12-20T00:39:37;100487.44;;;5.88;100.00
37694;BME280;23531;50.122;8.644;2023-12-20T00:41:39;100490.69;;;5.75;100.00
37694;BME280;23531;50.122;8.644;2023-12-20T00:43:40;100492.53;;;5.75;100.00
37694;BME280;23531;50.122;8.644;2023-12-20T00:45:41;100496.97;;;5.82;100.00
37694;BME280;23531;50.122;8.644;2023-12-20T00:47:42;100501.75;;;5.87;100.00
37694;BME280;23531;50.122;8.644;2023-12-20T00:49:45;100499.06;;;5.95;100.00
37694;BME280;23531;50.122;8.644;2023-12-20T00:51:46;100494.44;;;5.89;100.00
37694;BME280;23531;50.122;8.644;2023-12-20T00:53:50;100495.97;;;5.83;100.00
37694;BME280;23531;50.122;8.644;2023-12-20T00:55:54;100495.28;;;5.81;100.00
37694;BME280;23531;50.122;8.644;2023-12-20T00:57:56;100479.22;;;5.98;100.00
37694;BME280;23531;50.122;8.644;2023-12-20T00:59:57;100480.31;;;6.03;100.00
37694;BME280;23531;50.122;8.644;2023-12-20T01:01:58;100482.63;;;6.06;100.00
37694;BME280;23531;50.122;8.644;2023-12-20T01:03:58;100477.13;;;6.08;100.00
37694;BME280;23531;50.122;8.644;2023-12-20T01:06:01;100473.91;;;6.12;100.00
37694;BME280;23531;50.122;8.644;2023-12-20T01:08:04;100471.00;;;5.99;100.00
37694;BME280;23531;50.122;8.644;2023-12-20T01:10:05;100477.44;;;5.82;100.00
37694;BME280;23531;50.122;8.644;2023-12-20T01:12:06;100483.13;;;5.79;100.00
37694;BME280;23531;50.122;8.644;2023-12-20T01:14:08;100478.56;;;5.88;100.00
37694;BME280;23531;50.122;8.644;2023-12-20T01:16:09;100478.25;;;5.91;100.00
37694;BME280;23531;50.122;8.644;2023-12-20T01:18:11;100482.13;;;5.80;100.00
37694;BME280;23531;50.122;8.644;2023-12-20T01:20:12;100477.63;;;5.80;100.00
37694;BME280;23531;50.122;8.644;2023-12-20T01:22:15;100474.78;;;5.82;100.00
37694;BME280;23531;50.122;8.644;2023-12-20T01:24:16;100484.50;;;5.75;100.00
37694;BME280;23531;50.122;8.644;2023-12-20T01:26:16;100468.72;;;5.65;100.00
37694;BME280;23531;50.122;8.644;2023-12-20T01:28:17;100466.44;;;5.62;100.00
37694;BME280;23531;50.122;8.644;2023-12-20T01:30:19;100476.50;;;5.75;100.00
37694;BME280;23531;50.122;8.644;2023-12-20T01:32:19;100475.88;;;5.88;100.00
37694;BME280;23531;50.122;8.644;2023-12-20T01:34:20;100483.78;;;5.81;100.00
37694;BME280;23531;50.122;8.644;2023-12-20T01:36:22;100469.72;;;5.95;100.00
37694;BME280;23531;50.122;8.644;2023-12-20T01:38:24;100474.16;;;6.03;100.00
37694;BME280;23531;50.122;8.644;2023-12-20T01:40:26;100479.88;;;6.14;100.00
37694;BME280;23531;50.122;8.644;2023-12-20T01:42:27;100473.91;;;6.12;100.00
37694;BME280;23531;50.122;8.644;2023-12-20T01:44:29;100472.88;;;6.13;100.00
37694;BME280;23531;50.122;8.644;2023-12-20T01:46:30;100475.22;;;6.16;100.00
37694;BME280;23531;50.122;8.644;2023-12-20T01:48:30;100481.50;;;6.01;100.00
37694;BME280;23531;50.122;8.644;2023-12-20T01:50:32;100473.91;;;6.12;100.00
37694;BME280;23531;50.122;8.644;2023-12-20T01:52:34;100465.09;;;6.27;100.00
37694;BME280;23531;50.122;8.644;2023-12-20T01:54:37;100473.75;;;6.29;100.00
37694;BME280;23531;50.122;8.644;2023-12-20T01:56:39;100487.50;;;6.03;100.00
37694;BME280;23531;50.122;8.644;2023-12-20T01:58:43;100499.25;;;5.94;100.00
37694;BME280;23531;50.122;8.644;2023-12-20T02:00:45;100506.34;;;6.01;100.00
37694;BME280;23531;50.122;8.644;2023-12-20T02:02:46;100493.59;;;6.11;100.00
37694;BME280;23531;50.122;8.644;2023-12-20T02:04:47;100499.81;;;6.27;100.00
37694;BME280;23531;50.122;8.644;2023-12-20T02:06:52;100491.09;;;6.10;100.00
37694;BME280;23531;50.122;8.644;2023-12-20T02:08:53;100489.88;;;6.21;100.00
37694;BME280;23531;50.122;8.644;2023-12-20T02:10:56;100484.00;;;6.02;100.00
37694;BME280;23531;50.122;8.644;2023-12-20T02:12:57;100475.63;;;5.82;100.00
37694;BME280;23531;50.122;8.644;2023-12-20T02:14:59;100478.75;;;5.86;100.00
37694;BME280;23531;50.122;8.644;2023-12-20T02:17:00;100480.84;;;5.99;100.00
37694;BME280;23531;50.122;8.644;2023-12-20T02:19:02;100484.97;;;6.24;100.00
37694;BME280;23531;50.122;8.644;2023-12-20T02:21:04;100480.00;;;6.21;100.00
37694;BME280;23531;50.122;8.644;2023-12-20T02:23:07;100465.53;;;6.15;100.00
37694;BME280;23531;50.122;8.644;2023-12-20T02:25:08;100473.06;;;6.12;100.00
37694;BME280;23531;50.122;8.644;2023-12-20T02:27:10;100473.66;;;5.99;100.00
37694;BME280;23531;50.122;8.644;2023-12-20T02:29:11;100478.56;;;5.88;100.00
37694;BME280;23531;50.122;8.644;2023-12-20T02:31:12;100479.91;;;5.92;100.00
37694;BME280;23531;50.122;8.644;2023-12-20T02:33:14;100469.09;;;5.85;100.00
37694;BME280;23531;50.122;8.644;2023-12-20T02:35:16;100460.13;;;5.78;100.00
37694;BME280;23531;50.122;8.644;2023-12-20T02:37:17;100461.09;;;5.85;100.00
37694;BME280;23531;50.122;8.644;2023-12-20T02:39:20;100459.56;;;5.91;100.00
37694;BME280;23531;50.122;8.644;2023-12-20T02:41:22;100465.22;;;5.88;100.00
37694;BME280;23531;50.122;8.644;2023-12-20T02:43:23;100471.31;;;6.04;100.00
37694;BME280;23531;50.122;8.644;2023-12-20T02:45:23;100465.72;;;5.91;100.00
37694;BME280;23531;50.122;8.644;2023-12-20T02:47:24;100465.03;;;5.97;100.00
37694;BME280;23531;50.122;8.644;2023-12-20T02:49:26;100468.16;;;6.01;100.00
37694;BME280;23531;50.122;8.644;2023-12-20T02:51:27;100467.75;;;5.89;100.00
37694;BME280;23531;50.122;8.644;2023-12-20T02:53:28;100470.28;;;5.82;100.00
37694;BME280;23531;50.122;8.644;2023-12-20T02:55:31;100461.44;;;5.82;100.00
37694;BME280;23531;50.122;8.644;2023-12-20T02:57:31;100465.22;;;5.96;100.00
37694;BME280;23531;50.122;8.644;2023-12-20T02:59:33;100466.50;;;6.00;100.00
37694;BME280;23531;50.122;8.644;2023-12-20T03:01:34;100472.63;;;6.08;100.00
37694;BME280;23531;50.122;8.644;2023-12-20T03:03:35;100476.06;;;5.94;100.00
37694;BME280;23531;50.122;8.644;2023-12-20T03:05:36;100483.88;;;5.96;100.00
37694;BME280;23531;50.122;8.644;2023-12-20T03:07:36;100487.81;;;6.08;100.00
37694;BME280;23531;50.122;8.644;2023-12-20T03:09:38;100491.00;;;6.03;100.00
37694;BME280;23531;50.122;8.644;2023-12-20T03:11:40;100482.31;;;6.01;100.00
37694;BME280;23531;50.122;8.644;2023-12-20T03:13:41;100481.03;;;5.97;100.00
37694;BME280;23531;50.122;8.644;2023-12-20T03:15:42;100473.31;;;6.02;100.00
37694;BME280;23531;50.122;8.644;2023-12-20T03:17:43;100463.81;;;6.00;100.00
37694;BME280;23531;50.122;8.644;2023-12-20T03:19:44;100465.31;;;6.02;100.00
37694;BME280;23531;50.122;8.644;2023-12-20T03:21:45;100471.66;;;6.01;100.00
37694;BME280;23531;50.122;8.644;2023-12-20T03:23:46;100476.41;;;5.91;100.00
37694;BME280;23531;50.122;8.644;2023-12-20T03:25:47;100480.13;;;5.82;100.00
37694;BME280;23531;50.122;8.644;2023-12-20T03:27:50;100478.06;;;5.92;100.00
37694;BME280;23531;50.122;8.644;2023-12-20T03:29:51;100483.16;;;6.02;100.00
37694;BME280;23531;50.122;8.644;2023-12-20T03:31:52;100484.22;;;6.15;100.00
37694;BME280;23531;50.122;8.644;2023-12-20T03:33:54;100488.25;;;6.11;100.00
37694;BME280;23531;50.122;8.644;2023-12-20T03:35:54;100492.31;;;6.07;100.00
37694;BME280;23531;50.122;8.644;2023-12-20T03:37:55;100510.00;;;6.08;100.00
37694;BME280;23531;50.122;8.644;2023-12-20T03:39:57;100512.03;;;6.21;100.00
37694;BME280;23531;50.122;8.644;2023-12-20T03:41:59;100510.44;;;6.12;100.00
37694;BME280;23531;50.122;8.644;2023-12-20T03:44:01;100498.81;;;6.28;100.00
37694;BME280;23531;50.122;8.644;2023-12-20T03:46:03;100514.75;;;6.36;100.00
37694;BME280;23531;50.122;8.644;2023-12-20T03:48:05;100514.41;;;6.39;100.00
37694;BME280;23531;50.122;8.644;2023-12-20T03:50:06;100515.50;;;6.44;100.00
37694;BME280;23531;50.122;8.644;2023-12-20T03:52:08;100517.97;;;6.31;100.00
37694;BME280;23531;50.122;8.644;2023-12-20T03:54:09;100521.34;;;6.25;100.00
37694;BME280;23531;50.122;8.644;2023-12-20T03:56:10;100519.44;;;6.34;100.00
37694;BME280;23531;50.122;8.644;2023-12-20T03:58:11;100526.44;;;6.35;100.00
37694;BME280;23531;50.122;8.644;2023-12-20T04:00:14;100519.34;;;6.27;100.00
37694;BME280;23531;50.122;8.644;2023-12-20T04:02:15;100514.25;;;6.17;100.00
37694;BME280;23531;50.122;8.644;2023-12-20T04:04:18;100510.66;;;6.25;100.00
37694;BME280;23531;50.122;8.644;2023-12-20T04:06:19;100515.25;;;6.16;100.00
37694;BME280;23531;50.122;8.644;2023-12-20T04:08:21;100524.28;;;6.15;100.00
37694;BME280;23531;50.122;8.644;2023-12-20T04:10:22;100525.69;;;6.26;100.00
37694;BME280;23531;50.122;8.644;2023-12-20T04:12:23;100524.44;;;6.14;100.00
37694;BME280;23531;50.122;8.644;2023-12-20T04:14:24;100520.53;;;6.02;100.00
37694;BME280;23531;50.122;8.644;2023-12-20T04:16:27;100519.19;;;6.06;100.00
37694;BME280;23531;50.122;8.644;2023-12-20T04:18:28;100515.44;;;5.92;100.00
37694;BME280;23531;50.122;8.644;2023-12-20T04:20:32;100512.09;;;5.90;100.00
37694;BME280;23531;50.122;8.644;2023-12-20T04:22:33;100523.75;;;5.97;100.00
37694;BME280;23531;50.122;8.644;2023-12-20T04:24:34;100523.38;;;6.00;100.00
37694;BME280;23531;50.122;8.644;2023-12-20T04:26:35;100535.03;;;6.07;100.00
37694;BME280;23531;50.122;8.644;2023-12-20T04:28:37;100532.44;;;5.91;100.00
37694;BME280;23531;50.122;8.644;2023-12-20T04:30:38;100538.22;;;6.03;100.00
37694;BME280;23531;50.122;8.644;2023-12-20T04:32:40;100531.03;;;6.03;100.00
37694;BME280;23531;50.122;8.644;2023-12-20T04:34:42;100539.78;;;5.89;100.00
37694;BME280;23531;50.122;8.644;2023-12-20T04:36:43;100531.53;;;6.07;100.00
37694;BME280;23531;50.122;8.644;2023-12-20T04:38:44;100538.44;;;5.93;100.00
37694;BME280;23531;50.122;8.644;2023-12-20T04:40:45;100546.56;;;6.00;100.00
37694;BME280;23531;50.122;8.644;2023-12-20T04:42:46;100549.13;;;5.93;100.00
37694;BME280;23531;50.122;8.644;2023-12-20T04:44:47;100558.16;;;6.15;100.00
37694;BME280;23531;50.122;8.644;2023-12-20T04:46:48;100545.56;;;6.01;100.00
37694;BME280;23531;50.122;8.644;2023-12-20T04:48:51;100545.28;;;5.96;100.00
37694;BME280;23531;50.122;8.644;2023-12-20T04:50:52;100539.78;;;5.89;100.00
37694;BME280;23531;50.122;8.644;2023-12-20T04:52:54;100549.56;;;5.74;100.00
37694;BME280;23531;50.122;8.644;2023-12-20T04:54:55;100548.94;;;5.64;100.00
37694;BME280;23531;50.122;8.644;2023-12-20T04:56:56;100548.22;;;5.70;100.00
37694;BME280;23531;50.122;8.644;2023-12-20T04:58:57;100552.03;;;5.75;100.00
37694;BME280;23531;50.122;8.644;2023-12-20T05:00:58;100555.88;;;5.73;100.00
37694;BME280;23531;50.122;8.644;2023-12-20T05:02:59;100560.44;;;5.87;100.00
37694;BME280;23531;50.122;8.644;2023-12-20T05:05:01;100559.00;;;5.84;100.00
37694;BME280;23531;50.122;8.644;2023-12-20T05:07:03;100567.16;;;5.91;100.00
37694;BME280;23531;50.122;8.644;2023-12-20T05:09:04;100567.81;;;5.93;100.00
37694;BME280;23531;50.122;8.644;2023-12-20T05:11:06;100573.06;;;6.09;100.00
37694;BME280;23531;50.122;8.644;2023-12-20T05:13:07;100572.56;;;6.06;100.00
37694;BME280;23531;50.122;8.644;2023-12-20T05:15:09;100581.69;;;6.11;100.00
37694;BME280;23531;50.122;8.644;2023-12-20T05:17:10;100584.19;;;6.13;100.00
37694;BME280;23531;50.122;8.644;2023-12-20T05:19:11;100579.69;;;6.13;100.00
37694;BME280;23531;50.122;8.644;2023-12-20T05:21:14;100584.00;;;6.14;100.00
37694;BME280;23531;50.122;8.644;2023-12-20T05:23:15;100581.81;;;5.95;100.00
37694;BME280;23531;50.122;8.644;2023-12-20T05:25:17;100582.84;;;5.86;100.00
37694;BME280;23531;50.122;8.644;2023-12-20T05:27:18;100583.34;;;5.81;100.00
37694;BME280;23531;50.122;8.644;2023-12-20T05:29:20;100583.53;;;5.80;100.00
37694;BME280;23531;50.122;8.644;2023-12-20T05:31:20;100587.84;;;5.81;100.00
37694;BME280;23531;50.122;8.644;2023-12-20T05:33:21;100595.66;;;5.91;100.00
37694;BME280;23531;50.122;8.644;2023-12-20T05:35:23;100592.81;;;5.92;100.00
37694;BME280;23531;50.122;8.644;2023-12-20T05:37:25;100601.16;;;5.97;100.00
37694;BME280;23531;50.122;8.644;2023-12-20T05:39:26;100600.84;;;5.92;100.00
37694;BME280;23531;50.122;8.644;2023-12-20T05:41:27;100602.84;;;5.90;100.00
37694;BME280;23531;50.122;8.644;2023-12-20T05:43:28;100598.81;;;5.94;100.00
37694;BME280;23531;50.122;8.644;2023-12-20T05:45:29;100588.63;;;5.98;100.00
37694;BME280;23531;50.122;8.644;2023-12-20T05:47:30;100594.78;;;5.98;100.00
37694;BME280;23531;50.122;8.644;2023-12-20T05:49:31;100587.59;;;5.99;100.00
37694;BME280;23531;50.122;8.644;2023-12-20T05:51:33;100584.00;;;5.92;100.00
37694;BME280;23531;50.122;8.644;2023-12-20T05:53:35;100594.50;;;5.93;100.00
37694;BME280;23531;50.122;8.644;2023-12-20T05:55:36;100583.31;;;5.98;100.00
37694;BME280;23531;50.122;8.644;2023-12-20T05:57:37;100579.25;;;6.02;100.00
37694;BME280;23531;50.122;8.644;2023-12-20T05:59:38;100588.41;;;6.07;100.00
37694;BME280;23531;50.122;8.644;2023-12-20T06:01:39;100596.25;;;6.09;100.00
37694;BME280;23531;50.122;8.644;2023-12-20T06:03:41;100593.16;;;5.97;100.00
37694;BME280;23531;50.122;8.644;2023-12-20T06:05:41;100598.00;;;5.94;100.00
37694;BME280;23531;50.122;8.644;2023-12-20T06:07:43;100607.66;;;5.95;100.00
37694;BME280;23531;50.122;8.644;2023-12-20T06:09:46;100610.78;;;5.98;100.00
37694;BME280;23531;50.122;8.644;2023-12-20T06:11:47;100610.78;;;5.98;100.00
37694;BME280;23531;50.122;8.644;2023-12-20T06:13:49;100614.28;;;5.99;100.00
37694;BME280;23531;50.122;8.644;2023-12-20T06:15:52;100613.44;;;6.06;100.00
37694;BME280;23531;50.122;8.644;2023-12-20T06:17:52;100625.13;;;6.05;100.00
37694;BME280;23531;50.122;8.644;2023-12-20T06:19:53;100633.63;;;6.01;100.00
37694;BME280;23531;50.122;8.644;2023-12-20T06:21:54;100634.00;;;5.98;99.93
37694;BME280;23531;50.122;8.644;2023-12-20T06:23:56;100632.84;;;5.92;99.52
37694;BME280;23531;50.122;8.644;2023-12-20T06:25:59;100632.38;;;5.89;99.17
37694;BME280;23531;50.122;8.644;2023-12-20T06:28:00;100633.25;;;5.73;98.23
37694;BME280;23531;50.122;8.644;2023-12-20T06:30:01;100641.09;;;5.74;98.38
37694;BME280;23531;50.122;8.644;2023-12-20T06:32:03;100631.22;;;5.83;98.64
37694;BME280;23531;50.122;8.644;2023-12-20T06:34:04;100623.88;;;5.77;97.27
37694;BME280;23531;50.122;8.644;2023-12-20T06:36:06;100608.75;;;5.69;96.06
37694;BME280;23531;50.122;8.644;2023-12-20T06:38:07;100614.59;;;5.65;95.52
37694;BME280;23531;50.122;8.644;2023-12-20T06:40:09;100615.25;;;5.67;95.01
37694;BME280;23531;50.122;8.644;2023-12-20T06:42:11;100615.97;;;5.61;94.20
37694;BME280;23531;50.122;8.644;2023-12-20T06:44:13;100624.66;;;5.55;93.18
37694;BME280;23531;50.122;8.644;2023-12-20T06:46:14;100617.84;;;5.52;93.07
37694;BME280;23531;50.122;8.644;2023-12-20T06:48:14;100622.66;;;5.57;93.60
37694;BME280;23531;50.122;8.644;2023-12-20T06:50:16;100625.63;;;5.62;93.72
37694;BME280;23531;50.122;8.644;2023-12-20T06:52:16;100631.31;;;5.59;93.13
37694;BME280;23531;50.122;8.644;2023-12-20T06:54:17;100636.66;;;5.59;93.72
37694;BME280;23531;50.122;8.644;2023-12-20T06:56:19;100625.75;;;5.68;94.06
37694;BME280;23531;50.122;8.644;2023-12-20T06:58:21;100621.88;;;5.79;94.19
37694;BME280;23531;50.122;8.644;2023-12-20T07:00:23;100623.22;;;5.83;94.05
37694;BME280;23531;50.122;8.644;2023-12-20T07:02:24;100632.03;;;5.92;93.91
37694;BME280;23531;50.122;8.644;2023-12-20T07:04:25;100626.88;;;5.82;93.49
37694;BME280;23531;50.122;8.644;2023-12-20T07:06:26;100628.69;;;5.90;93.71
37694;BME280;23531;50.122;8.644;2023-12-20T07:08:28;100642.19;;;5.96;93.55
37694;BME280;23531;50.122;8.644;2023-12-20T07:10:29;100642.47;;;6.01;93.00
37694;BME280;23531;50.122;8.644;2023-12-20T07:12:30;100636.09;;;6.10;93.40
37694;BME280;23531;50.122;8.644;2023-12-20T07:14:33;100640.78;;;6.08;92.66
37694;BME280;23531;50.122;8.644;2023-12-20T07:16:34;100647.09;;;6.15;92.84
37694;BME280;23531;50.122;8.644;2023-12-20T07:18:36;100644.06;;;6.18;92.92
37694;BME280;23531;50.122;8.644;2023-12-20T07:20:37;100651.63;;;6.07;92.31
37694;BME280;23531;50.122;8.644;2023-12-20T07:22:38;100654.91;;;6.17;92.15
37694;BME280;23531;50.122;8.644;2023-12-20T07:24:39;100667.25;;;6.18;91.74
37694;BME280;23531;50.122;8.644;2023-12-20T07:26:40;100664.00;;;6.08;90.84
37694;BME280;23531;50.122;8.644;2023-12-20T07:28:41;100664.84;;;6.00;89.94
37694;BME280;23531;50.122;8.644;2023-12-20T07:30:43;100665.22;;;5.89;89.96
37694;BME280;23531;50.122;8.644;2023-12-20T07:32:45;100657.38;;;5.96;90.79
37694;BME280;23531;50.122;8.644;2023-12-20T07:34:47;100650.53;;;5.93;90.23
37694;BME280;23531;50.122;8.644;2023-12-20T07:36:48;100656.03;;;5.92;90.28
37694;BME280;23531;50.122;8.644;2023-12-20T07:38:50;100661.88;;;5.95;89.70
37694;BME280;23531;50.122;8.644;2023-12-20T07:40:51;100667.22;;;5.95;90.01
37694;BME280;23531;50.122;8.644;2023-12-20T07:42:52;100667.06;;;5.89;89.70
37694;BME280;23531;50.122;8.644;2023-12-20T07:44:53;100667.22;;;5.95;89.98
37694;BME280;23531;50.122;8.644;2023-12-20T07:46:56;100673.22;;;5.97;89.51
37694;BME280;23531;50.122;8.644;2023-12-20T07:48:58;100675.88;;;5.97;89.84
37694;BME280;23531;50.122;8.644;2023-12-20T07:50:59;100673.00;;;6.07;89.69
37694;BME280;23531;50.122;8.644;2023-12-20T07:53:01;100676.34;;;6.01;88.90
37694;BME280;23531;50.122;8.644;2023-12-20T07:55:03;100682.00;;;6.06;89.10
37694;BME280;23531;50.122;8.644;2023-12-20T07:57:04;100674.50;;;6.01;87.95
37694;BME280;23531;50.122;8.644;2023-12-20T07:59:05;100671.19;;;5.99;88.41
37694;BME280;23531;50.122;8.644;2023-12-20T08:01:07;100662.31;;;6.07;88.16
37694;BME280;23531;50.122;8.644;2023-12-20T08:03:09;100664.44;;;6.11;88.12
37694;BME280;23531;50.122;8.644;2023-12-20T08:05:11;100664.44;;;6.11;87.80
37694;BME280;23531;50.122;8.644;2023-12-20T08:07:13;100675.63;;;6.15;87.02
37694;BME280;23531;50.122;8.644;2023-12-20T08:09:14;100673.91;;;6.22;87.21
37694;BME280;23531;50.122;8.644;2023-12-20T08:11:16;100680.47;;;6.11;86.47
37694;BME280;23531;50.122;8.644;2023-12-20T08:13:17;100673.13;;;6.13;87.30
37694;BME280;23531;50.122;8.644;2023-12-20T08:15:18;100671.94;;;6.16;86.54
37694;BME280;23531;50.122;8.644;2023-12-20T08:17:19;100677.53;;;5.98;85.76
37694;BME280;23531;50.122;8.644;2023-12-20T08:19:22;100681.84;;;6.07;86.59
37694;BME280;23531;50.122;8.644;2023-12-20T08:21:23;100678.34;;;5.99;86.34
37694;BME280;23531;50.122;8.644;2023-12-20T08:23:24;100678.34;;;5.99;86.75
37694;BME280;23531;50.122;8.644;2023-12-20T08:25:26;100672.84;;;6.00;87.03
37694;BME280;23531;50.122;8.644;2023-12-20T08:27:27;100677.28;;;6.16;87.20
37694;BME280;23531;50.122;8.644;2023-12-20T08:29:28;100672.94;;;6.15;87.09
37694;BME280;23531;50.122;8.644;2023-12-20T08:31:29;100676.84;;;6.04;85.87
37694;BME280;23531;50.122;8.644;2023-12-20T08:33:30;100678.72;;;5.88;85.81
37694;BME280;23531;50.122;8.644;2023-12-20T08:35:33;100683.56;;;5.84;86.05
37694;BME280;23531;50.122;8.644;2023-12-20T08:37:34;100679.41;;;5.90;86.29
37694;BME280;23531;50.122;8.644;2023-12-20T08:39:36;100688.84;;;6.00;86.40
37694;BME280;23531;50.122;8.644;2023-12-20T08:41:37;100683.78;;;6.13;86.52
37694;BME280;23531;50.122;8.644;2023-12-20T08:43:38;100694.03;;;6.33;86.59
37694;BME280;23531;50.122;8.644;2023-12-20T08:45:40;100695.88;;;6.32;86.21
37694;BME280;23531;50.122;8.644;2023-12-20T08:47:41;100692.41;;;6.32;85.75
37694;BME280;23531;50.122;8.644;2023-12-20T08:49:42;100692.41;;;6.32;85.87
37694;BME280;23531;50.122;8.644;2023-12-20T08:51:45;100684.28;;;6.17;85.77
37694;BME280;23531;50.122;8.644;2023-12-20T08:53:46;100686.69;;;6.04;86.01
37694;BME280;23531;50.122;8.644;2023-12-20T08:55:48;100684.72;;;5.98;86.09
37694;BME280;23531;50.122;8.644;2023-12-20T08:57:49;100681.03;;;5.99;86.91
37694;BME280;23531;50.122;8.644;2023-12-20T08:59:50;100678.41;;;6.22;86.93
37694;BME280;23531;50.122;8.644;2023-12-20T09:01:52;100676.50;;;6.07;86.41
37694;BME280;23531;50.122;8.644;2023-12-20T09:03:54;100685.06;;;5.95;87.09
37694;BME280;23531;50.122;8.644;2023-12-20T09:05:56;100676.22;;;5.94;87.07
37694;BME280;23531;50.122;8.644;2023-12-20T09:07:58;100686.38;;;5.99;87.83
37694;BME280;23531;50.122;8.644;2023-12-20T09:09:59;100683.91;;;5.97;87.64
37694;BME280;23531;50.122;8.644;2023-12-20T09:12:01;100674.50;;;6.09;87.89
37694;BME280;23531;50.122;8.644;2023-12-20T09:14:02;100674.56;;;6.24;87.35
37694;BME280;23531;50.122;8.644;2023-12-20T09:16:03;100673.13;;;6.13;87.03
37694;BME280;23531;50.122;8.644;2023-12-20T09:18:05;100665.03;;;6.30;87.55
37694;BME280;23531;50.122;8.644;2023-12-20T09:20:06;100664.03;;;6.23;87.43
37694;BME280;23531;50.122;8.644;2023-12-20T09:22:08;100666.28;;;6.42;87.09
37694;BME280;23531;50.122;8.644;2023-12-20T09:24:10;100667.56;;;6.23;86.29
37694;BME280;23531;50.122;8.644;2023-12-20T09:26:12;100671.22;;;6.22;86.78
37694;BME280;23531;50.122;8.644;2023-12-20T09:28:13;100673.72;;;6.24;87.04
37694;BME280;23531;50.122;8.644;2023-12-20T09:30:14;100673.63;;;6.40;87.65
37694;BME280;23531;50.122;8.644;2023-12-20T09:32:16;100680.34;;;6.36;86.80
37694;BME280;23531;50.122;8.644;2023-12-20T09:34:17;100674.75;;;6.45;86.96
37694;BME280;23531;50.122;8.644;2023-12-20T09:36:18;100675.78;;;6.67;87.25
37694;BME280;23531;50.122;8.644;2023-12-20T09:38:20;100676.84;;;6.58;86.74
37694;BME280;23531;50.122;8.644;2023-12-20T09:40:22;100680.66;;;6.64;86.84
37694;BME280;23531;50.122;8.644;2023-12-20T09:42:29;100683.50;;;6.62;86.47
37694;BME280;23531;50.122;8.644;2023-12-20T09:44:33;100687.34;;;6.60;87.37
37694;BME280;23531;50.122;8.644;2023-12-20T09:46:35;100681.09;;;6.44;86.09
37694;BME280;23531;50.122;8.644;2023-12-20T09:48:39;100691.34;;;6.33;86.23
37694;BME280;23531;50.122;8.644;2023-12-20T09:50:41;100685.38;;;6.31;86.99
37694;BME280;23531;50.122;8.644;2023-12-20T09:52:42;100687.66;;;6.42;87.32
37694;BME280;23531;50.122;8.644;2023-12-20T09:54:44;100680.88;;;6.31;87.08
37694;BME280;23531;50.122;8.644;2023-12-20T09:56:47;100688.94;;;6.46;87.44
37694;BME280;23531;50.122;8.644;2023-12-20T09:58:48;100681.41;;;6.49;87.27
37694;BME280;23531;50.122;8.644;2023-12-20T10:00:49;100680.16;;;6.60;87.37
37694;BME280;23531;50.122;8.644;2023-12-20T10:02:55;100678.50;;;6.59;87.15
37694;BME280;23531;50.122;8.644;2023-12-20T10:04:57;100687.69;;;6.56;87.01
37694;BME280;23531;50.122;8.644;2023-12-20T10:07:01;100690.09;;;6.51;87.01
37694;BME280;23531;50.122;8.644;2023-12-20T10:09:03;100678.50;;;6.59;87.48
37694;BME280;23531;50.122;8.644;2023-12-20T10:11:05;100678.50;;;6.59;87.46
37694;BME280;23531;50.122;8.644;2023-12-20T10:13:09;100679.75;;;6.71;87.11
37694;BME280;23531;50.122;8.644;2023-12-20T10:15:11;100671.31;;;6.82;87.36
37694;BME280;23531;50.122;8.644;2023-12-20T10:17:12;100670.31;;;6.83;87.71
37694;BME280;23531;50.122;8.644;2023-12-20T10:19:12;100672.06;;;6.91;87.32
37694;BME280;23531;50.122;8.644;2023-12-20T10:21:17;100670.72;;;6.95;87.41
37694;BME280;23531;50.122;8.644;2023-12-20T10:23:19;100665.66;;;6.77;86.62
37694;BME280;23531;50.122;8.644;2023-12-20T10:25:19;100662.72;;;6.72;86.04
37694;BME280;23531;50.122;8.644;2023-12-20T10:27:21;100658.91;;;6.67;86.66
37694;BME280;23531;50.122;8.644;2023-12-20T10:29:23;100656.00;;;6.76;87.53
37694;BME280;23531;50.122;8.644;2023-12-20T10:31:25;100652.69;;;6.74;87.28
37694;BME280;23531;50.122;8.644;2023-12-20T10:33:26;100646.44;;;6.82;87.55
37694;BME280;23531;50.122;8.644;2023-12-20T10:35:28;100645.50;;;6.75;86.30
37694;BME280;23531;50.122;8.644;2023-12-20T10:37:29;100630.34;;;6.67;87.24
37694;BME280;23531;50.122;8.644;2023-12-20T10:39:31;100636.56;;;6.82;87.83